Davenport, IA (52804)

9:47 PM CST on March 03, 2015 (GMT -0600)
West Central Davenport | Change Station
CLOSE
Current Station
Personal Weather Station
Location: Davenport, IA
Elevation: 704 ft
Nearby Weather Stations

Elev 704 ft 41.53 °N, 90.61 °W | Updated 37 seconds ago

Overcast
Overcast
25.3 °F
Feels Like 25 °F
N
0.0
Wind Variable Wind from WNW
Gusts 0.0 mph

Today
High -- | Low -- °F
--% Chance of Precip.
Yesterday
High -- | Low -- °F
Precip. -- in
6:34 AM 5:55 PM
Waxing Gibbous, 98% visible
Pressure 29.95 in
Visibility 10.0 miles
Clouds Overcast 1800 ft
Windchill 25 °F
Dew Point 15 °F
Humidity 65%
Rainfall 0.02 in
Snow Depth Not available.
UV 0 out of 12
Pollen .50 out of 12
Air Quality Not available.
Flu Activity Not available.
METAR KDVN 040252Z AUTO 30021KT 10SM OVC018 M03/M07 A2992 RMK AO2 PK WND 30026/0243 SLP141 T10281067 53044

More Conditions Fewer Conditions

Pressure 29.95 in
Visibility 10.0 miles
Clouds Overcast 1800 ft
Windchill 25 °F
Dew Point 15 °F
Humidity 65%
Rainfall 0.02 in
Snow Depth Not available.
UV 0 out of 12
Pollen .50 out of 12
Air Quality Not available.
Flu Activity Not available.
METAR KDVN 040252Z AUTO 30021KT 10SM OVC018 M03/M07 A2992 RMK AO2 PK WND 30026/0243 SLP141 T10281067 53044

More Conditions Fewer Conditions

10-Day Weather Forecast

Almanac

Astronomy

Mar. 03, 2015 Rise Set
Actual Time
Civil Twilight
Nautical Twilight
Astronomical Twilight
Moon
Length of Visible Light
Length of Day
Tomorrow will be .
, % of the Moon is Illuminated

Today's Extremes

State Highs State Lows

Community

WunderPhotos

Upload Photos

1,802,379 photos uploaded!

WunderBlogs® & News

Nearby

Air Quality

  Air Quality AQ Index Pollutant
Not available.

Snow Depth

Station Depth Elevation

Earthquake Activity

City Distance Mag. Time & Date
Minimum magnitude displayed is 2.5.

Coastal Water Temperatures

Place Temperature

Nearby Weather Stations